ADDS METAR Data INFO
IDs: Format: Raw Decoded Include TAF

Data at: 1847 UTC 17 Oct 2017

KTEB 171751Z 33004KT 10SM CLR 14/M01 A3028 RMK AO2 SLP254 T01391011 10144 20050 58018
KTEB 171651Z 27004KT 10SM CLR 13/M01 A3031 RMK AO2 SLP262 T01281011
KTEB 171551Z 08004KT 10SM CLR 12/00 A3032 RMK AO2 SLP268 T01170000
KTEB 171451Z 36005KT 10SM CLR 10/00 A3033 RMK AO2 SLP272 T01000000 50001
KTEB 171351Z 04008KT 10SM CLR 09/01 A3035 RMK AO2 SLP276 T00890006
KTEB 171251Z 34004KT 10SM CLR 07/01 A3035 RMK AO2 SLP277 T00720011
KTEB 171151Z 35004KT 10SM CLR 05/01 A3033 RMK AO2 SLP271 T00500006 10067 20039 51022
KTEB 171051Z 33003KT 10SM CLR 04/00 A3032 RMK AO2 SLP266 T00390000
KTEB 170951Z 01004KT 10SM CLR 05/00 A3029 RMK AO2 SLP257 T00500000
KTEB 170851Z 02004KT 10SM CLR 05/00 A3027 RMK AO2 SLP249 T00500000 53012
KTEB 170751Z 00000KT 10SM CLR 06/M01 A3025 RMK AO2 SLP242 T00561006
KTEB 170651Z 35004KT 10SM CLR 06/M01 A3025 RMK AO2 SLP241 T00611006
KTEB 170551Z 34005KT 10SM CLR 07/M01 A3023 RMK AO2 SLP237 T00671011 10111 20067 53009
KTEB 170451Z 34007KT 10SM CLR 08/M01 A3022 RMK AO2 SLP233 T00781011 402110072
KTEB 170351Z 33007KT 10SM CLR 08/M02 A3021 RMK AO2 SLP231 T00831017
KTEB 170251Z 35010G19KT 10SM CLR 09/M02 A3021 RMK AO2 SLP228 T00891017 51022
KTEB 170151Z 35012G20KT 10SM CLR 10/00 A3019 RMK AO2 SLP223 T01000000
KTEB 170051Z 34010KT 10SM CLR 11/02 A3016 RMK AO2 SLP213 T01060017
KTEB 162351Z 34008KT 10SM CLR 11/01 A3014 RMK AO2 SLP205 T01110011 10156 20111 53028
KTEB 162251Z 33011G16KT 10SM FEW055 12/02 A3010 RMK AO2 SLP193 T01220022
KTEB 162151Z 34008KT 10SM SCT050 13/03 A3008 RMK AO2 SLP184 T01330033
KTEB 162051Z 33011G19KT 10SM CLR 14/03 A3006 RMK AO2 SLP178 T01390028 51022
KTEB 161951Z 32012G21KT 10SM CLR 13/04 A3004 RMK AO2 SLP172 T01330039
KTEB 161851Z 32014G20KT 10SM FEW040 16/05 A3002 RMK AO2 SLP165 T01560050
KTEB 161751Z 34010KT 10SM CLR 14/04 A2999 RMK AO2 SLP156 T01390044 10144 20133 58004
KTEB 161651Z 33013G20KT 10SM CLR 14/04 A3000 RMK AO2 SLP157 T01390044 $
KTEB 161551Z 33010KT 10SM CLR 14/06 A3003 RMK AO2 SLP168 T01390056 $
KTEB 161451Z 31014G19KT 10SM CLR 14/06 A3001 RMK AO2 SLP160 T01390056 51024 $
KTEB 161351Z 31009G19KT 10SM CLR 13/05 A3000 RMK AO2 SLP160 T01330050 $
KTEB 161251Z 32009KT 10SM FEW120 13/05 A2997 RMK AO2 SLP150 T01330050 $
KTEB 161151Z 32008G18KT 10SM FEW034 14/06 A2993 RMK AO2 SLP136 60000 T01440061 10211 20144 51028 $
KTEB 161051Z 32009KT 10SM CLR 16/09 A2991 RMK AO2 SLP129 T01560089 $
KTEB 160951Z 34014G20KT 10SM OVC120 16/10 A2987 RMK AO2 SLP116 T01610100 $
KTEB 160851Z 30005KT 10SM FEW080 OVC100 17/14 A2985 RMK AO2 RAE31 SLP108 P0000 60000 T01670139 51015 $
KTEB 160837Z 31004KT 10SM FEW065 SCT080 OVC100 17/14 A2984 RMK AO2 RAE31 P0000 T01670139 $
KTEB 160751Z 32013G19KT 10SM -RA FEW015 BKN022 OVC070 18/13 A2984 RMK AO2 DZE47RAB47 SLP104 P0000 T01780128 $
KTEB 160651Z 31006KT 10SM -DZ FEW015 BKN022 OVC070 19/17 A2983 RMK AO2 SLP099 P0000 T01940167 $